sensor_id;sensor_type;location;lat;lon;timestamp;pressure;altitude;pressure_sealevel;temperature;humidity
25510;BME280;13413;52.336;21.200;2023-08-24T00:01:53;100655.02;;;19.14;66.24
25510;BME280;13413;52.336;21.200;2023-08-24T00:04:47;100649.45;;;19.28;66.38
25510;BME280;13413;52.336;21.200;2023-08-24T00:07:40;100650.81;;;19.38;66.25
25510;BME280;13413;52.336;21.200;2023-08-24T00:10:35;100651.18;;;19.44;66.11
25510;BME280;13413;52.336;21.200;2023-08-24T00:13:30;100650.64;;;19.45;65.95
25510;BME280;13413;52.336;21.200;2023-08-24T00:16:24;100649.86;;;19.43;65.89
25510;BME280;13413;52.336;21.200;2023-08-24T00:19:18;100654.19;;;19.43;66.05
25510;BME280;13413;52.336;21.200;2023-08-24T00:22:11;100651.55;;;19.39;66.08
25510;BME280;13413;52.336;21.200;2023-08-24T00:25:07;100646.13;;;19.30;66.23
25510;BME280;13413;52.336;21.200;2023-08-24T00:28:00;100646.88;;;19.31;66.39
25510;BME280;13413;52.336;21.200;2023-08-24T00:30:55;100645.86;;;19.33;66.36
25510;BME280;13413;52.336;21.200;2023-08-24T00:33:49;100646.55;;;19.35;66.43
25510;BME280;13413;52.336;21.200;2023-08-24T00:36:43;100646.64;;;19.47;66.42
25510;BME280;13413;52.336;21.200;2023-08-24T00:39:36;100647.00;;;19.54;66.28
25510;BME280;13413;52.336;21.200;2023-08-24T00:42:31;100643.58;;;19.56;66.30
25510;BME280;13413;52.336;21.200;2023-08-24T00:45:25;100638.35;;;19.60;66.23
25510;BME280;13413;52.336;21.200;2023-08-24T00:48:19;100639.27;;;19.57;65.99
25510;BME280;13413;52.336;21.200;2023-08-24T00:51:15;100639.79;;;19.52;66.17
25510;BME280;13413;52.336;21.200;2023-08-24T00:54:09;100637.42;;;19.56;66.18
25510;BME280;13413;52.336;21.200;2023-08-24T00:57:03;100642.48;;;19.56;66.32
25510;BME280;13413;52.336;21.200;2023-08-24T00:59:57;100639.48;;;19.56;66.20
25510;BME280;13413;52.336;21.200;2023-08-24T01:02:53;100638.39;;;19.58;66.26
25510;BME280;13413;52.336;21.200;2023-08-24T01:05:47;100639.35;;;19.56;66.16
25510;BME280;13413;52.336;21.200;2023-08-24T01:08:42;100642.42;;;19.50;66.03
25510;BME280;13413;52.336;21.200;2023-08-24T01:11:45;100642.38;;;19.43;66.02
25510;BME280;13413;52.336;21.200;2023-08-24T01:14:51;100637.09;;;19.30;66.21
25510;BME280;13413;52.336;21.200;2023-08-24T01:17:48;100636.35;;;19.23;66.47
25510;BME280;13413;52.336;21.200;2023-08-24T01:20:45;100636.23;;;19.18;66.54
25510;BME280;13413;52.336;21.200;2023-08-24T01:23:45;100639.13;;;19.22;66.67
25510;BME280;13413;52.336;21.200;2023-08-24T01:26:42;100631.73;;;19.28;66.56
25510;BME280;13413;52.336;21.200;2023-08-24T01:29:37;100630.89;;;19.31;66.61
25510;BME280;13413;52.336;21.200;2023-08-24T01:32:33;100630.74;;;19.32;66.59
25510;BME280;13413;52.336;21.200;2023-08-24T01:35:27;100631.13;;;19.34;66.60
25510;BME280;13413;52.336;21.200;2023-08-24T01:38:19;100632.87;;;19.38;66.60
25510;BME280;13413;52.336;21.200;2023-08-24T01:47:00;100627.11;;;19.49;66.63
25510;BME280;13413;52.336;21.200;2023-08-24T01:49:56;100628.13;;;19.46;66.56
25510;BME280;13413;52.336;21.200;2023-08-24T01:52:50;100629.29;;;19.48;66.62
25510;BME280;13413;52.336;21.200;2023-08-24T01:55:47;100632.29;;;19.49;66.60
25510;BME280;13413;52.336;21.200;2023-08-24T01:58:41;100633.33;;;19.50;66.62
25510;BME280;13413;52.336;21.200;2023-08-24T02:01:35;100633.11;;;19.48;66.55
25510;BME280;13413;52.336;21.200;2023-08-24T02:04:29;100631.05;;;19.36;66.55
25510;BME280;13413;52.336;21.200;2023-08-24T02:07:23;100631.39;;;19.20;66.92
25510;BME280;13413;52.336;21.200;2023-08-24T02:10:17;100625.98;;;18.96;67.22
25510;BME280;13413;52.336;21.200;2023-08-24T02:13:11;100625.27;;;18.80;67.59
25510;BME280;13413;52.336;21.200;2023-08-24T02:16:07;100625.00;;;18.72;67.75
25510;BME280;13413;52.336;21.200;2023-08-24T02:19:01;100620.39;;;18.82;67.79
25510;BME280;13413;52.336;21.200;2023-08-24T02:21:55;100620.45;;;18.92;67.66
25510;BME280;13413;52.336;21.200;2023-08-24T02:24:49;100617.29;;;18.98;67.53
25510;BME280;13413;52.336;21.200;2023-08-24T02:27:43;100611.52;;;19.03;67.48
25510;BME280;13413;52.336;21.200;2023-08-24T02:30:39;100607.48;;;19.05;67.49
25510;BME280;13413;52.336;21.200;2023-08-24T02:33:34;100605.70;;;19.07;67.60
25510;BME280;13413;52.336;21.200;2023-08-24T02:36:28;100608.02;;;19.05;67.56
25510;BME280;13413;52.336;21.200;2023-08-24T02:39:22;100606.76;;;19.03;67.64
25510;BME280;13413;52.336;21.200;2023-08-24T02:42:16;100614.80;;;19.02;67.72
25510;BME280;13413;52.336;21.200;2023-08-24T02:45:10;100611.73;;;19.07;67.60
25510;BME280;13413;52.336;21.200;2023-08-24T02:48:05;100613.48;;;19.11;67.49
25510;BME280;13413;52.336;21.200;2023-08-24T02:51:01;100616.73;;;19.16;67.70
25510;BME280;13413;52.336;21.200;2023-08-24T02:53:56;100618.56;;;19.20;67.73
25510;BME280;13413;52.336;21.200;2023-08-24T02:56:50;100622.42;;;19.15;67.64
25510;BME280;13413;52.336;21.200;2023-08-24T02:59:44;100622.27;;;18.98;67.67
25510;BME280;13413;52.336;21.200;2023-08-24T03:02:38;100622.56;;;18.67;68.04
25510;BME280;13413;52.336;21.200;2023-08-24T03:05:32;100618.48;;;18.50;68.50
25510;BME280;13413;52.336;21.200;2023-08-24T03:08:26;100615.05;;;18.45;68.80
25510;BME280;13413;52.336;21.200;2023-08-24T03:11:20;100618.07;;;18.36;69.03
25510;BME280;13413;52.336;21.200;2023-08-24T03:14:14;100624.30;;;18.27;69.32
25510;BME280;13413;52.336;21.200;2023-08-24T03:17:08;100621.70;;;18.32;69.39
25510;BME280;13413;52.336;21.200;2023-08-24T03:20:02;100619.29;;;18.50;69.52
25510;BME280;13413;52.336;21.200;2023-08-24T03:22:56;100615.70;;;18.62;69.07
25510;BME280;13413;52.336;21.200;2023-08-24T03:25:50;100617.16;;;18.71;69.07
25510;BME280;13413;52.336;21.200;2023-08-24T03:28:44;100616.49;;;18.79;69.06
25510;BME280;13413;52.336;21.200;2023-08-24T03:31:38;100612.46;;;18.86;68.80
25510;BME280;13413;52.336;21.200;2023-08-24T03:34:32;100608.86;;;18.82;68.67
25510;BME280;13413;52.336;21.200;2023-08-24T03:37:26;100610.77;;;18.77;68.67
25510;BME280;13413;52.336;21.200;2023-08-24T03:40:20;100610.05;;;18.65;68.80
25510;BME280;13413;52.336;21.200;2023-08-24T03:43:14;100605.23;;;18.49;69.08
25510;BME280;13413;52.336;21.200;2023-08-24T03:46:08;100601.08;;;18.41;69.31
25510;BME280;13413;52.336;21.200;2023-08-24T03:49:02;100598.40;;;18.36;69.55
25510;BME280;13413;52.336;21.200;2023-08-24T03:51:56;100601.59;;;18.48;69.61
25510;BME280;13413;52.336;21.200;2023-08-24T03:54:50;100603.64;;;18.51;69.52
25510;BME280;13413;52.336;21.200;2023-08-24T03:57:44;100606.86;;;18.51;69.44
25510;BME280;13413;52.336;21.200;2023-08-24T04:06:31;100611.25;;;18.66;69.35
25510;BME280;13413;52.336;21.200;2023-08-24T04:09:25;100610.55;;;18.73;69.38
25510;BME280;13413;52.336;21.200;2023-08-24T04:12:19;100613.10;;;18.75;69.22
25510;BME280;13413;52.336;21.200;2023-08-24T04:15:13;100622.05;;;18.73;69.24
25510;BME280;13413;52.336;21.200;2023-08-24T04:18:07;100628.96;;;18.72;69.21
25510;BME280;13413;52.336;21.200;2023-08-24T04:21:01;100631.33;;;18.72;69.35
25510;BME280;13413;52.336;21.200;2023-08-24T04:23:55;100635.11;;;18.79;69.41
25510;BME280;13413;52.336;21.200;2023-08-24T04:26:50;100635.72;;;18.83;69.30
25510;BME280;13413;52.336;21.200;2023-08-24T04:29:44;100635.40;;;18.82;69.23
25510;BME280;13413;52.336;21.200;2023-08-24T04:32:37;100635.95;;;18.67;69.42
25510;BME280;13413;52.336;21.200;2023-08-24T04:35:35;100637.66;;;18.68;69.65
25510;BME280;13413;52.336;21.200;2023-08-24T04:38:28;100628.83;;;18.81;69.58
25510;BME280;13413;52.336;21.200;2023-08-24T04:41:22;100626.79;;;18.92;69.57
25510;BME280;13413;52.336;21.200;2023-08-24T04:44:17;100624.70;;;19.04;69.55
25510;BME280;13413;52.336;21.200;2023-08-24T04:47:27;100623.27;;;19.08;69.34
25510;BME280;13413;52.336;21.200;2023-08-24T04:50:20;100623.63;;;18.96;69.22
25510;BME280;13413;52.336;21.200;2023-08-24T04:53:16;100626.50;;;18.90;69.44
25510;BME280;13413;52.336;21.200;2023-08-24T04:56:11;100624.39;;;18.88;69.48
25510;BME280;13413;52.336;21.200;2023-08-24T04:59:06;100624.52;;;18.90;69.56
25510;BME280;13413;52.336;21.200;2023-08-24T05:02:00;100624.95;;;18.93;69.48
25510;BME280;13413;52.336;21.200;2023-08-24T05:04:53;100622.20;;;18.99;69.53
25510;BME280;13413;52.336;21.200;2023-08-24T05:07:47;100622.34;;;19.04;69.45
25510;BME280;13413;52.336;21.200;2023-08-24T05:10:41;100622.61;;;19.16;69.50
25510;BME280;13413;52.336;21.200;2023-08-24T05:13:35;100627.42;;;19.26;69.44
25510;BME280;13413;52.336;21.200;2023-08-24T05:16:28;100627.98;;;19.35;69.37
25510;BME280;13413;52.336;21.200;2023-08-24T05:19:22;100627.61;;;19.42;69.24
25510;BME280;13413;52.336;21.200;2023-08-24T05:22:19;100633.23;;;19.49;69.06
25510;BME280;13413;52.336;21.200;2023-08-24T05:25:13;100630.52;;;19.59;69.00
25510;BME280;13413;52.336;21.200;2023-08-24T05:28:29;100633.09;;;19.70;68.99
25510;BME280;13413;52.336;21.200;2023-08-24T05:31:23;100637.08;;;19.80;68.96
25510;BME280;13413;52.336;21.200;2023-08-24T05:34:17;100634.68;;;19.92;68.83
25510;BME280;13413;52.336;21.200;2023-08-24T05:37:11;100634.85;;;20.02;68.78
25510;BME280;13413;52.336;21.200;2023-08-24T05:40:06;100634.61;;;20.12;68.53
25510;BME280;13413;52.336;21.200;2023-08-24T05:43:00;100633.84;;;20.22;68.35
25510;BME280;13413;52.336;21.200;2023-08-24T05:45:54;100631.85;;;20.30;68.17
25510;BME280;13413;52.336;21.200;2023-08-24T05:48:50;100635.09;;;20.41;68.01
25510;BME280;13413;52.336;21.200;2023-08-24T05:51:44;100635.27;;;20.48;67.95
25510;BME280;13413;52.336;21.200;2023-08-24T05:54:39;100640.33;;;20.55;67.95
25510;BME280;13413;52.336;21.200;2023-08-24T05:57:33;100640.94;;;20.65;67.76
25510;BME280;13413;52.336;21.200;2023-08-24T06:00:26;100644.70;;;20.74;67.82
25510;BME280;13413;52.336;21.200;2023-08-24T06:03:23;100644.70;;;20.84;67.85
25510;BME280;13413;52.336;21.200;2023-08-24T06:06:18;100645.63;;;20.96;67.71
25510;BME280;13413;52.336;21.200;2023-08-24T06:09:11;100644.52;;;21.11;67.34
25510;BME280;13413;52.336;21.200;2023-08-24T06:12:09;100640.68;;;21.28;66.59
25510;BME280;13413;52.336;21.200;2023-08-24T06:15:04;100630.58;;;21.49;66.52
25510;BME280;13413;52.336;21.200;2023-08-24T06:17:57;100634.18;;;21.65;65.97
25510;BME280;13413;52.336;21.200;2023-08-24T06:26:41;100634.67;;;22.11;64.35
25510;BME280;13413;52.336;21.200;2023-08-24T06:29:35;100638.67;;;22.21;63.99
25510;BME280;13413;52.336;21.200;2023-08-24T06:32:31;100640.64;;;22.32;63.58
25510;BME280;13413;52.336;21.200;2023-08-24T06:35:26;100639.90;;;22.42;62.94
25510;BME280;13413;52.336;21.200;2023-08-24T06:38:20;100634.23;;;22.50;62.42
25510;BME280;13413;52.336;21.200;2023-08-24T06:41:14;100632.49;;;22.57;62.41
25510;BME280;13413;52.336;21.200;2023-08-24T06:44:08;100630.64;;;22.60;61.44
25510;BME280;13413;52.336;21.200;2023-08-24T06:47:02;100632.67;;;22.66;61.25
25510;BME280;13413;52.336;21.200;2023-08-24T06:49:55;100633.73;;;22.76;61.55
25510;BME280;13413;52.336;21.200;2023-08-24T06:52:50;100632.42;;;22.87;61.07
25510;BME280;13413;52.336;21.200;2023-08-24T06:55:43;100631.77;;;22.98;60.41
25510;BME280;13413;52.336;21.200;2023-08-24T06:58:38;100633.67;;;23.07;59.84
25510;BME280;13413;52.336;21.200;2023-08-24T07:04:40;100634.66;;;23.26;58.62
25510;BME280;13413;52.336;21.200;2023-08-24T07:07:35;100635.80;;;23.30;58.32
25510;BME280;13413;52.336;21.200;2023-08-24T07:10:30;100640.19;;;23.34;57.89
25510;BME280;13413;52.336;21.200;2023-08-24T07:13:24;100639.67;;;23.41;57.40
25510;BME280;13413;52.336;21.200;2023-08-24T07:16:17;100643.66;;;23.50;57.02
25510;BME280;13413;52.336;21.200;2023-08-24T07:19:12;100646.55;;;23.61;56.87
25510;BME280;13413;52.336;21.200;2023-08-24T07:22:06;100647.30;;;23.72;56.70
25510;BME280;13413;52.336;21.200;2023-08-24T07:25:01;100648.78;;;23.79;55.73
25510;BME280;13413;52.336;21.200;2023-08-24T07:27:56;100647.27;;;23.90;56.08
25510;BME280;13413;52.336;21.200;2023-08-24T07:30:51;100645.35;;;23.97;55.53
25510;BME280;13413;52.336;21.200;2023-08-24T07:33:45;100648.70;;;24.03;55.54
25510;BME280;13413;52.336;21.200;2023-08-24T07:36:38;100647.84;;;24.19;55.53
25510;BME280;13413;52.336;21.200;2023-08-24T07:39:32;100642.51;;;24.34;55.01
25510;BME280;13413;52.336;21.200;2023-08-24T07:42:26;100649.17;;;24.40;53.88
25510;BME280;13413;52.336;21.200;2023-08-24T07:45:20;100648.00;;;24.51;53.49
25510;BME280;13413;52.336;21.200;2023-08-24T07:48:15;100647.77;;;24.63;53.39
25510;BME280;13413;52.336;21.200;2023-08-24T07:51:09;100645.40;;;24.75;53.47
25510;BME280;13413;52.336;21.200;2023-08-24T07:54:03;100643.88;;;24.82;53.19
25510;BME280;13413;52.336;21.200;2023-08-24T07:56:57;100645.81;;;24.93;53.29
25510;BME280;13413;52.336;21.200;2023-08-24T07:59:51;100645.17;;;25.05;52.69
25510;BME280;13413;52.336;21.200;2023-08-24T08:02:45;100648.31;;;25.15;52.30
25510;BME280;13413;52.336;21.200;2023-08-24T08:05:39;100644.73;;;25.25;52.17
25510;BME280;13413;52.336;21.200;2023-08-24T08:08:33;100640.59;;;25.38;51.88
25510;BME280;13413;52.336;21.200;2023-08-24T08:11:27;100643.55;;;25.48;50.86
25510;BME280;13413;52.336;21.200;2023-08-24T08:14:21;100639.23;;;25.51;51.00
25510;BME280;13413;52.336;21.200;2023-08-24T08:17:15;100644.92;;;25.58;50.51
25510;BME280;13413;52.336;21.200;2023-08-24T08:20:09;100637.23;;;25.66;50.64
25510;BME280;13413;52.336;21.200;2023-08-24T08:23:04;100640.23;;;25.74;49.74
25510;BME280;13413;52.336;21.200;2023-08-24T08:25:58;100639.17;;;25.82;49.76
25510;BME280;13413;52.336;21.200;2023-08-24T08:28:52;100640.27;;;25.89;49.58
25510;BME280;13413;52.336;21.200;2023-08-24T08:31:46;100640.61;;;25.97;49.51
25510;BME280;13413;52.336;21.200;2023-08-24T08:34:40;100642.20;;;26.04;49.14
25510;BME280;13413;52.336;21.200;2023-08-24T08:37:32;100640.73;;;26.12;48.39
25510;BME280;13413;52.336;21.200;2023-08-24T08:46:51;100642.33;;;26.46;47.88
25510;BME280;13413;52.336;21.200;2023-08-24T08:49:47;100645.21;;;26.58;47.63
25510;BME280;13413;52.336;21.200;2023-08-24T08:52:41;100640.71;;;26.79;46.75
25510;BME280;13413;52.336;21.200;2023-08-24T08:55:35;100636.02;;;26.78;46.81
25510;BME280;13413;52.336;21.200;2023-08-24T08:58:29;100635.77;;;26.86;46.32
25510;BME280;13413;52.336;21.200;2023-08-24T09:01:25;100643.55;;;26.89;46.11
25510;BME280;13413;52.336;21.200;2023-08-24T09:04:20;100640.22;;;26.90;46.06
25510;BME280;13413;52.336;21.200;2023-08-24T09:07:15;100640.27;;;26.91;45.65
25510;BME280;13413;52.336;21.200;2023-08-24T09:10:09;100642.95;;;26.87;45.41
25510;BME280;13413;52.336;21.200;2023-08-24T09:13:03;100647.08;;;26.92;45.24
25510;BME280;13413;52.336;21.200;2023-08-24T09:16:10;100642.34;;;26.95;44.85
25510;BME280;13413;52.336;21.200;2023-08-24T09:19:06;100641.90;;;26.95;45.13
25510;BME280;13413;52.336;21.200;2023-08-24T09:22:01;100637.48;;;26.97;45.08
25510;BME280;13413;52.336;21.200;2023-08-24T09:24:55;100639.45;;;26.97;45.12
25510;BME280;13413;52.336;21.200;2023-08-24T09:27:57;100639.26;;;27.03;45.22
25510;BME280;13413;52.336;21.200;2023-08-24T09:30:53;100634.63;;;27.07;44.93
25510;BME280;13413;52.336;21.200;2023-08-24T09:33:48;100636.46;;;27.09;45.25
25510;BME280;13413;52.336;21.200;2023-08-24T09:36:41;100634.27;;;27.15;44.99
25510;BME280;13413;52.336;21.200;2023-08-24T09:39:35;100636.48;;;27.21;45.10
25510;BME280;13413;52.336;21.200;2023-08-24T09:42:29;100633.89;;;27.26;45.14
25510;BME280;13413;52.336;21.200;2023-08-24T09:45:23;100628.96;;;27.32;44.77
25510;BME280;13413;52.336;21.200;2023-08-24T09:48:17;100632.39;;;27.34;44.72
25510;BME280;13413;52.336;21.200;2023-08-24T09:51:11;100629.83;;;27.43;44.74
25510;BME280;13413;52.336;21.200;2023-08-24T09:54:07;100628.79;;;27.48;44.26
25510;BME280;13413;52.336;21.200;2023-08-24T09:57:03;100624.54;;;27.50;44.33
25510;BME280;13413;52.336;21.200;2023-08-24T09:59:57;100622.02;;;27.72;43.89
25510;BME280;13413;52.336;21.200;2023-08-24T10:02:52;100617.36;;;27.92;43.75
25510;BME280;13413;52.336;21.200;2023-08-24T10:05:47;100620.13;;;28.18;43.26
25510;BME280;13413;52.336;21.200;2023-08-24T10:08:47;100619.35;;;28.26;42.93
25510;BME280;13413;52.336;21.200;2023-08-24T10:11:45;100618.20;;;28.34;43.15
25510;BME280;13413;52.336;21.200;2023-08-24T10:14:47;100614.95;;;28.48;42.76
25510;BME280;13413;52.336;21.200;2023-08-24T10:17:45;100613.90;;;28.59;42.84
25510;BME280;13413;52.336;21.200;2023-08-24T10:20:41;100619.42;;;28.72;42.34
25510;BME280;13413;52.336;21.200;2023-08-24T10:23:36;100614.77;;;28.73;42.29
25510;BME280;13413;52.336;21.200;2023-08-24T10:26:31;100613.57;;;28.84;41.97
25510;BME280;13413;52.336;21.200;2023-08-24T10:29:27;100614.77;;;28.80;41.77
25510;BME280;13413;52.336;21.200;2023-08-24T10:32:21;100616.54;;;28.95;42.45
25510;BME280;13413;52.336;21.200;2023-08-24T10:35:17;100609.67;;;29.26;42.25
25510;BME280;13413;52.336;21.200;2023-08-24T10:38:23;100611.14;;;29.28;42.01
25510;BME280;13413;52.336;21.200;2023-08-24T10:41:17;100611.10;;;29.31;41.96
25510;BME280;13413;52.336;21.200;2023-08-24T10:44:21;100612.45;;;29.40;41.91
25510;BME280;13413;52.336;21.200;2023-08-24T10:47:17;100604.18;;;29.71;41.63
25510;BME280;13413;52.336;21.200;2023-08-24T10:50:11;100598.09;;;30.00;41.60
25510;BME280;13413;52.336;21.200;2023-08-24T10:53:08;100599.70;;;30.12;41.03
25510;BME280;13413;52.336;21.200;2023-08-24T10:56:16;100597.27;;;30.03;40.69
25510;BME280;13413;52.336;21.200;2023-08-24T10:59:12;100599.59;;;29.72;40.70
25510;BME280;13413;52.336;21.200;2023-08-24T11:07:49;100591.48;;;29.68;40.99
25510;BME280;13413;52.336;21.200;2023-08-24T11:10:47;100591.33;;;29.84;40.50
25510;BME280;13413;52.336;21.200;2023-08-24T11:14:17;100584.21;;;29.92;39.95
25510;BME280;13413;52.336;21.200;2023-08-24T11:17:20;100585.59;;;29.86;39.73
25510;BME280;13413;52.336;21.200;2023-08-24T11:20:14;100586.65;;;29.67;39.57
25510;BME280;13413;52.336;21.200;2023-08-24T11:23:09;100586.86;;;29.60;39.75
25510;BME280;13413;52.336;21.200;2023-08-24T11:26:02;100588.14;;;29.55;39.36
25510;BME280;13413;52.336;21.200;2023-08-24T11:28:56;100582.66;;;29.39;39.57
25510;BME280;13413;52.336;21.200;2023-08-24T11:31:52;100579.52;;;29.42;39.80
25510;BME280;13413;52.336;21.200;2023-08-24T11:34:46;100574.40;;;29.81;40.02
25510;BME280;13413;52.336;21.200;2023-08-24T11:37:40;100575.93;;;30.10;38.99
25510;BME280;13413;52.336;21.200;2023-08-24T11:40:34;100576.45;;;30.08;38.78
25510;BME280;13413;52.336;21.200;2023-08-24T11:43:28;100582.19;;;30.17;39.47
25510;BME280;13413;52.336;21.200;2023-08-24T11:46:36;100578.75;;;30.36;39.64
25510;BME280;13413;52.336;21.200;2023-08-24T11:49:30;100576.74;;;30.45;39.55
25510;BME280;13413;52.336;21.200;2023-08-24T11:52:26;100571.05;;;30.35;39.96
25510;BME280;13413;52.336;21.200;2023-08-24T11:58:18;100573.53;;;30.18;39.91
25510;BME280;13413;52.336;21.200;2023-08-24T12:01:13;100569.80;;;29.89;40.20
25510;BME280;13413;52.336;21.200;2023-08-24T12:04:07;100574.45;;;29.67;40.57
25510;BME280;13413;52.336;21.200;2023-08-24T12:07:01;100570.42;;;29.47;40.57
25510;BME280;13413;52.336;21.200;2023-08-24T12:10:03;100566.66;;;29.30;41.07
25510;BME280;13413;52.336;21.200;2023-08-24T12:13:04;100563.02;;;29.25;41.17
25510;BME280;13413;52.336;21.200;2023-08-24T12:15:58;100560.23;;;29.19;41.41
25510;BME280;13413;52.336;21.200;2023-08-24T12:18:55;100558.97;;;29.08;41.54
25510;BME280;13413;52.336;21.200;2023-08-24T12:21:51;100556.13;;;29.00;41.81
25510;BME280;13413;52.336;21.200;2023-08-24T12:24:47;100551.21;;;28.95;42.06
25510;BME280;13413;52.336;21.200;2023-08-24T12:27:41;100554.33;;;28.90;42.00
25510;BME280;13413;52.336;21.200;2023-08-24T12:30:45;100552.61;;;28.80;42.18
25510;BME280;13413;52.336;21.200;2023-08-24T12:33:38;100547.20;;;28.75;42.39
25510;BME280;13413;52.336;21.200;2023-08-24T12:36:33;100538.96;;;28.79;42.60
25510;BME280;13413;52.336;21.200;2023-08-24T12:39:28;100538.52;;;28.95;42.63
25510;BME280;13413;52.336;21.200;2023-08-24T12:42:27;100532.42;;;29.28;42.23
25510;BME280;13413;52.336;21.200;2023-08-24T12:45:21;100528.16;;;29.36;41.53
25510;BME280;13413;52.336;21.200;2023-08-24T12:48:16;100524.61;;;29.31;41.46
25510;BME280;13413;52.336;21.200;2023-08-24T12:51:10;100524.21;;;29.40;41.47
25510;BME280;13413;52.336;21.200;2023-08-24T12:54:03;100525.83;;;29.50;41.18
25510;BME280;13413;52.336;21.200;2023-08-24T12:56:57;100528.84;;;29.60;40.84
25510;BME280;13413;52.336;21.200;2023-08-24T12:59:51;100526.36;;;29.58;40.16
25510;BME280;13413;52.336;21.200;2023-08-24T13:02:44;100520.57;;;29.51;40.29
25510;BME280;13413;52.336;21.200;2023-08-24T13:05:39;100517.63;;;29.56;40.16
25510;BME280;13413;52.336;21.200;2023-08-24T13:08:32;100517.11;;;29.72;39.79
25510;BME280;13413;52.336;21.200;2023-08-24T13:11:27;100517.67;;;29.77;39.30
25510;BME280;13413;52.336;21.200;2023-08-24T13:14:21;100505.80;;;29.78;39.15
25510;BME280;13413;52.336;21.200;2023-08-24T13:17:14;100506.33;;;29.86;39.32
25510;BME280;13413;52.336;21.200;2023-08-24T13:20:08;100500.25;;;30.03;39.26
25510;BME280;13413;52.336;21.200;2023-08-24T13:28:35;100491.14;;;30.33;38.66
25510;BME280;13413;52.336;21.200;2023-08-24T13:31:29;100491.99;;;30.26;38.56
25510;BME280;13413;52.336;21.200;2023-08-24T13:34:23;100493.02;;;30.15;38.41
25510;BME280;13413;52.336;21.200;2023-08-24T13:37:18;100487.79;;;29.96;38.45
25510;BME280;13413;52.336;21.200;2023-08-24T13:40:12;100486.23;;;29.98;38.50
25510;BME280;13413;52.336;21.200;2023-08-24T13:43:06;100488.20;;;29.91;38.23
25510;BME280;13413;52.336;21.200;2023-08-24T13:46:00;100487.46;;;29.69;38.44
25510;BME280;13413;52.336;21.200;2023-08-24T13:48:54;100486.76;;;29.65;38.71
25510;BME280;13413;52.336;21.200;2023-08-24T13:51:48;100481.40;;;29.62;38.39
25510;BME280;13413;52.336;21.200;2023-08-24T13:57:37;100476.24;;;29.45;38.99
25510;BME280;13413;52.336;21.200;2023-08-24T14:00:31;100468.65;;;29.38;38.91
25510;BME280;13413;52.336;21.200;2023-08-24T14:03:26;100470.59;;;29.33;39.01
25510;BME280;13413;52.336;21.200;2023-08-24T14:06:19;100468.11;;;29.38;39.53
25510;BME280;13413;52.336;21.200;2023-08-24T14:09:13;100469.72;;;29.57;39.61
25510;BME280;13413;52.336;21.200;2023-08-24T14:12:07;100470.13;;;29.75;39.31
25510;BME280;13413;52.336;21.200;2023-08-24T14:15:02;100469.13;;;29.86;39.32
25510;BME280;13413;52.336;21.200;2023-08-24T14:17:55;100474.28;;;29.93;39.37
25510;BME280;13413;52.336;21.200;2023-08-24T14:20:50;100468.61;;;30.01;39.47
25510;BME280;13413;52.336;21.200;2023-08-24T14:23:44;100468.23;;;30.00;39.08
25510;BME280;13413;52.336;21.200;2023-08-24T14:26:38;100470.94;;;29.89;39.24
25510;BME280;13413;52.336;21.200;2023-08-24T14:29:32;100471.23;;;29.83;38.96
25510;BME280;13413;52.336;21.200;2023-08-24T14:32:26;100465.95;;;29.76;39.05
25510;BME280;13413;52.336;21.200;2023-08-24T14:35:20;100470.77;;;29.67;39.03
25510;BME280;13413;52.336;21.200;2023-08-24T14:38:14;100470.79;;;29.41;38.91
25510;BME280;13413;52.336;21.200;2023-08-24T14:41:08;100472.27;;;29.31;39.34
25510;BME280;13413;52.336;21.200;2023-08-24T14:44:02;100472.46;;;29.28;39.60
25510;BME280;13413;52.336;21.200;2023-08-24T14:46:56;100472.24;;;29.27;39.65
25510;BME280;13413;52.336;21.200;2023-08-24T14:49:50;100466.84;;;29.23;39.66
25510;BME280;13413;52.336;21.200;2023-08-24T14:52:44;100467.16;;;29.24;39.89
25510;BME280;13413;52.336;21.200;2023-08-24T14:55:40;100470.13;;;29.28;39.93
25510;BME280;13413;52.336;21.200;2023-08-24T14:58:35;100470.44;;;29.33;39.99
25510;BME280;13413;52.336;21.200;2023-08-24T15:01:28;100472.34;;;29.34;39.90
25510;BME280;13413;52.336;21.200;2023-08-24T15:04:22;100466.49;;;29.25;39.88
25510;BME280;13413;52.336;21.200;2023-08-24T15:07:16;100461.54;;;29.21;39.97
25510;BME280;13413;52.336;21.200;2023-08-24T15:10:10;100456.30;;;29.22;40.10
25510;BME280;13413;52.336;21.200;2023-08-24T15:13:05;100455.33;;;29.26;40.02
25510;BME280;13413;52.336;21.200;2023-08-24T15:15:58;100454.10;;;29.29;39.96
25510;BME280;13413;52.336;21.200;2023-08-24T15:18:52;100454.33;;;29.28;39.77
25510;BME280;13413;52.336;21.200;2023-08-24T15:21:46;100455.46;;;29.27;39.75
25510;BME280;13413;52.336;21.200;2023-08-24T15:24:40;100451.13;;;29.33;39.66
25510;BME280;13413;52.336;21.200;2023-08-24T15:27:35;100452.43;;;29.41;39.47
25510;BME280;13413;52.336;21.200;2023-08-24T15:30:29;100454.30;;;29.48;39.14
25510;BME280;13413;52.336;21.200;2023-08-24T15:33:23;100451.50;;;29.52;39.03
25510;BME280;13413;52.336;21.200;2023-08-24T15:36:17;100450.91;;;29.54;38.68
25510;BME280;13413;52.336;21.200;2023-08-24T15:39:10;100446.07;;;29.49;38.66
25510;BME280;13413;52.336;21.200;2023-08-24T15:44:49;100448.70;;;29.41;38.45
25510;BME280;13413;52.336;21.200;2023-08-24T15:47:43;100448.56;;;29.36;38.27
25510;BME280;13413;52.336;21.200;2023-08-24T15:50:37;100445.70;;;29.33;38.33